createdAt,value
2022-09-06T00:00:05.169Z,100604.47
2022-09-06T00:02:33.832Z,100563.22
2022-09-06T00:05:01.589Z,100598.22
2022-09-06T00:07:29.441Z,100585.31
2022-09-06T00:09:57.662Z,100587.56
2022-09-06T00:12:25.511Z,100589.41
2022-09-06T00:14:54.551Z,100588.59
2022-09-06T00:17:22.283Z,100593.13
2022-09-06T00:19:49.999Z,100590.56
2022-09-06T00:22:17.765Z,100590.56
2022-09-06T00:24:45.465Z,100587.88
2022-09-06T00:27:13.200Z,100589.84
2022-09-06T00:29:40.898Z,100583.47
2022-09-06T00:32:10.084Z,100586.19
2022-09-06T00:34:37.787Z,100573.81
2022-09-06T00:37:05.567Z,100569.41
2022-09-06T00:39:33.374Z,100566.72
2022-09-06T00:42:01.139Z,100571.25
2022-09-06T00:44:28.939Z,100549.72
2022-09-06T00:46:56.660Z,100570.44
2022-09-06T00:49:26.530Z,100530.47
2022-09-06T00:51:54.876Z,100573.28
2022-09-06T00:54:22.579Z,100571.59
2022-09-06T00:56:50.325Z,100569.88
2022-09-06T00:59:18.045Z,100569.03
2022-09-06T01:01:45.834Z,100562.22
2022-09-06T01:04:13.595Z,100563.94
2022-09-06T01:06:49.140Z,100563.94
2022-09-06T01:09:24.364Z,100555.97
2022-09-06T01:11:58.345Z,100547.31
2022-09-06T01:14:34.861Z,100554.13
2022-09-06T01:17:07.714Z,100557.97
2022-09-06T01:19:52.458Z,100557.09
2022-09-06T01:22:30.809Z,100557.25
2022-09-06T01:25:02.826Z,100550.16
2022-09-06T01:27:47.261Z,100492.72
2022-09-06T01:30:15.422Z,100544.06
2022-09-06T01:32:46.511Z,100541.22
2022-09-06T01:35:17.692Z,100494.72
2022-09-06T01:37:45.472Z,100536.97
2022-09-06T01:40:13.341Z,100536.97
2022-09-06T01:42:42.444Z,100528.88
2022-09-06T01:45:11.513Z,100462.84
2022-09-06T01:47:41.471Z,100503.22
2022-09-06T01:50:26.035Z,100537.84
2022-09-06T01:52:59.741Z,100506.34
2022-09-06T01:55:30.896Z,100529.91
2022-09-06T01:58:13.774Z,100536.16
2022-09-06T02:00:43.347Z,100481.84
2022-09-06T02:03:14.326Z,100496.00
2022-09-06T02:05:43.407Z,100519.41
2022-09-06T02:08:12.781Z,100522.25
2022-09-06T02:10:42.440Z,100511.47
2022-09-06T02:13:11.526Z,100521.25
2022-09-06T02:15:40.450Z,100515.47
2022-09-06T02:18:10.895Z,100528.81
2022-09-06T02:20:41.612Z,100476.59
2022-09-06T02:23:09.443Z,100535.31
2022-09-06T02:25:39.500Z,100493.34
2022-09-06T02:28:07.300Z,100522.69
2022-09-06T02:30:37.561Z,100505.53
2022-09-06T02:33:08.011Z,100520.84
2022-09-06T02:35:43.473Z,100451.97
2022-09-06T02:38:11.247Z,100518.84
2022-09-06T02:40:39.110Z,100508.59
2022-09-06T02:43:06.912Z,100447.53
2022-09-06T02:45:35.993Z,100507.91
2022-09-06T02:48:04.073Z,100496.19
2022-09-06T02:50:31.879Z,100508.38
2022-09-06T02:53:04.309Z,100455.91
2022-09-06T02:55:32.094Z,100510.91
2022-09-06T02:57:59.823Z,100510.19
2022-09-06T03:00:27.637Z,100517.28
2022-09-06T03:02:56.849Z,100504.66
2022-09-06T03:05:24.568Z,100504.66
2022-09-06T03:07:52.342Z,100512.19
2022-09-06T03:10:20.052Z,100504.22
2022-09-06T03:12:47.858Z,100492.34
2022-09-06T03:15:16.224Z,100502.25
2022-09-06T03:17:44.043Z,100507.94
2022-09-06T03:20:14.000Z,100509.63
2022-09-06T03:22:41.629Z,100507.38
2022-09-06T03:25:10.364Z,100505.53
2022-09-06T03:27:38.116Z,100504.66
2022-09-06T03:30:07.108Z,100498.59
2022-09-06T03:32:34.906Z,100496.72
2022-09-06T03:35:02.626Z,100498.44
2022-09-06T03:37:31.700Z,100482.84
2022-09-06T03:39:59.886Z,100497.03
2022-09-06T03:42:28.144Z,100498.88
2022-09-06T03:44:55.898Z,100486.09
2022-09-06T03:47:23.622Z,100491.47
2022-09-06T03:49:51.514Z,100480.84
2022-09-06T03:52:19.293Z,100481.84
2022-09-06T03:54:48.327Z,100478.28
2022-09-06T03:57:16.112Z,100477.47
2022-09-06T03:59:43.837Z,100479.44
2022-09-06T04:02:11.676Z,100450.00
2022-09-06T04:04:39.406Z,100485.69
2022-09-06T04:07:07.175Z,100473.19
2022-09-06T04:09:34.904Z,100466.97
2022-09-06T04:12:04.570Z,100467.94
2022-09-06T04:14:32.280Z,100461.88
2022-09-06T04:17:00.074Z,100464.56
2022-09-06T04:19:27.849Z,100465.41
2022-09-06T04:21:55.598Z,100464.72
2022-09-06T04:24:23.279Z,100461.31
2022-09-06T04:26:51.009Z,100465.69
2022-09-06T04:29:20.045Z,100467.56
2022-09-06T04:31:47.827Z,100473.78
2022-09-06T04:34:16.429Z,100466.69
2022-09-06T04:36:48.182Z,100480.16
2022-09-06T04:39:16.211Z,100476.75
2022-09-06T04:41:44.137Z,100493.38
2022-09-06T04:44:11.869Z,100534.50
2022-09-06T04:46:42.123Z,100501.34
2022-09-06T04:49:09.839Z,100495.91
2022-09-06T04:51:39.483Z,100522.03
2022-09-06T04:54:07.317Z,100506.97
2022-09-06T04:56:35.030Z,100480.88
2022-09-06T04:59:03.088Z,100484.59
2022-09-06T05:01:30.845Z,100479.94
2022-09-06T05:03:59.914Z,100489.97
2022-09-06T05:06:27.664Z,100473.81
2022-09-06T05:08:55.388Z,100481.03
2022-09-06T05:11:23.116Z,100483.16
2022-09-06T05:13:51.223Z,100498.34
2022-09-06T05:16:19.006Z,100480.19
2022-09-06T05:18:46.796Z,100481.03
2022-09-06T05:21:15.894Z,100482.03
2022-09-06T05:23:43.827Z,100483.72
2022-09-06T05:26:11.548Z,100484.16
2022-09-06T05:28:39.274Z,100483.19
2022-09-06T05:31:08.348Z,100479.06
2022-09-06T05:33:36.113Z,100477.19
2022-09-06T05:36:04.159Z,100488.97
2022-09-06T05:38:33.485Z,100431.41
2022-09-06T05:41:01.332Z,100501.72
2022-09-06T05:43:29.079Z,100515.25
2022-09-06T05:45:56.797Z,100511.56
2022-09-06T05:48:24.573Z,100505.59
2022-09-06T05:51:00.992Z,100439.16
2022-09-06T05:53:28.741Z,100503.41
2022-09-06T05:55:57.778Z,100502.31
2022-09-06T05:58:25.636Z,100511.53
2022-09-06T06:00:53.759Z,100513.97
2022-09-06T06:03:21.543Z,100506.22
2022-09-06T06:05:49.260Z,100513.69
2022-09-06T06:08:16.976Z,100520.50
2022-09-06T06:10:44.680Z,100524.50
2022-09-06T06:13:13.741Z,100525.91
2022-09-06T06:15:41.516Z,100486.31
2022-09-06T06:18:09.258Z,100528.91
2022-09-06T06:20:36.958Z,100525.22
2022-09-06T06:23:04.810Z,100526.22
2022-09-06T06:25:32.522Z,100536.00
2022-09-06T06:28:00.239Z,100524.91
2022-09-06T06:30:29.284Z,100523.81
2022-09-06T06:32:58.478Z,100522.78
2022-09-06T06:35:26.300Z,100461.59
2022-09-06T06:37:54.036Z,100525.59
2022-09-06T06:40:22.109Z,100514.84
2022-09-06T06:42:49.848Z,100509.47
2022-09-06T06:45:18.684Z,100509.72
2022-09-06T06:47:50.768Z,100517.66
2022-09-06T06:50:18.484Z,100511.53
2022-09-06T06:52:46.207Z,100516.13
2022-09-06T06:55:13.904Z,100514.69
2022-09-06T06:57:41.636Z,100504.91
2022-09-06T07:00:11.019Z,100508.09
2022-09-06T07:02:38.755Z,100509.38
2022-09-06T07:07:56.311Z,100521.44
2022-09-06T07:12:59.860Z,100524.25
2022-09-06T07:15:27.661Z,100523.84
2022-09-06T07:17:56.051Z,100473.91
2022-09-06T07:20:26.312Z,100512.00
2022-09-06T07:25:48.691Z,100496.41
2022-09-06T07:28:16.423Z,100504.94
2022-09-06T07:30:44.231Z,100497.56
2022-09-06T07:33:11.964Z,100501.28
2022-09-06T07:35:41.701Z,100504.97
2022-09-06T07:38:09.451Z,100503.00
2022-09-06T07:40:37.167Z,100515.75
2022-09-06T07:43:04.905Z,100512.19
2022-09-06T07:45:35.904Z,100511.59
2022-09-06T07:48:03.961Z,100512.44
2022-09-06T07:50:48.829Z,100505.63
2022-09-06T07:53:26.235Z,100487.00
2022-09-06T07:55:58.122Z,100482.19
2022-09-06T07:58:25.843Z,100486.50
2022-09-06T08:00:53.568Z,100490.47
2022-09-06T08:03:21.357Z,100508.78
2022-09-06T08:11:29.107Z,100490.50
2022-09-06T08:13:57.366Z,100507.28
2022-09-06T08:16:26.186Z,100506.56
2022-09-06T08:18:54.699Z,100515.78
2022-09-06T08:21:23.628Z,100501.91
2022-09-06T08:23:53.388Z,100454.81
2022-09-06T08:26:22.423Z,100496.22
2022-09-06T08:28:53.524Z,100506.28
2022-09-06T08:31:21.340Z,100502.88
2022-09-06T08:33:49.062Z,100495.09
2022-09-06T08:36:16.807Z,100488.25
2022-09-06T08:38:44.766Z,100493.06
2022-09-06T08:41:21.294Z,100442.06
2022-09-06T08:43:50.559Z,100481.69
2022-09-06T08:46:18.434Z,100483.09
2022-09-06T08:48:46.195Z,100482.09
2022-09-06T08:51:43.710Z,100477.34
2022-09-06T08:54:13.483Z,100481.31
2022-09-06T08:56:46.836Z,100490.22
2022-09-06T08:59:17.577Z,100414.66
2022-09-06T09:01:48.337Z,100446.13
2022-09-06T09:04:17.581Z,100480.13
2022-09-06T09:06:45.500Z,100421.75
2022-09-06T09:09:14.890Z,100473.72
2022-09-06T09:11:44.946Z,100463.72
2022-09-06T09:14:15.586Z,100458.66
2022-09-06T09:16:43.685Z,100450.94
2022-09-06T09:19:11.450Z,100447.03
2022-09-06T09:21:40.098Z,100403.56
2022-09-06T09:24:08.923Z,100387.53
2022-09-06T09:26:39.582Z,100444.75
2022-09-06T09:29:10.061Z,100425.97
2022-09-06T09:31:42.533Z,100450.22
2022-09-06T09:34:13.619Z,100434.91
2022-09-06T09:36:41.461Z,100443.78
2022-09-06T09:39:12.399Z,100444.53
2022-09-06T09:41:41.644Z,100433.88
2022-09-06T09:44:11.706Z,100440.22
2022-09-06T09:46:39.922Z,100433.94
2022-09-06T09:49:09.462Z,100431.09
2022-09-06T09:51:37.963Z,100404.72
2022-09-06T09:54:07.228Z,100425.13
2022-09-06T09:56:43.529Z,100371.81
2022-09-06T09:59:21.135Z,100393.91
2022-09-06T10:01:48.867Z,100419.38
2022-09-06T10:07:12.112Z,100417.34
2022-09-06T10:09:40.864Z,100421.06
2022-09-06T10:12:08.661Z,100423.59
2022-09-06T10:14:45.942Z,100416.03
2022-09-06T10:17:20.190Z,100423.56
2022-09-06T10:19:48.778Z,100415.91
2022-09-06T10:22:23.822Z,100361.47
2022-09-06T10:25:01.929Z,100415.59
2022-09-06T10:27:31.066Z,100403.03
2022-09-06T10:30:02.903Z,100412.06
2022-09-06T10:32:37.421Z,100408.19
2022-09-06T10:35:11.029Z,100406.66
2022-09-06T10:37:47.182Z,100365.97
2022-09-06T10:40:20.605Z,100389.38
2022-09-06T10:42:49.277Z,100406.19
2022-09-06T10:45:39.192Z,100410.63
2022-09-06T10:48:13.951Z,100401.44
2022-09-06T10:50:45.329Z,100405.72
2022-09-06T10:53:25.896Z,100390.63
2022-09-06T10:56:01.313Z,100347.88
2022-09-06T11:01:25.357Z,100391.81
2022-09-06T11:03:55.592Z,100397.22
2022-09-06T11:06:28.190Z,100388.94
2022-09-06T11:08:58.620Z,100388.09
2022-09-06T11:11:27.951Z,100383.84
2022-09-06T11:13:55.664Z,100381.00
2022-09-06T11:16:26.903Z,100385.22
2022-09-06T11:18:57.441Z,100382.34
2022-09-06T11:21:49.217Z,100383.22
2022-09-06T11:24:17.796Z,100382.03
2022-09-06T11:26:45.821Z,100372.94
2022-09-06T11:29:19.817Z,100338.47
2022-09-06T11:34:45.867Z,100387.66
2022-09-06T11:37:26.422Z,100375.97
2022-09-06T11:43:19.667Z,100341.41
2022-09-06T11:45:49.664Z,100364.44
2022-09-06T11:48:50.756Z,100367.03
2022-09-06T11:51:33.307Z,100326.53
2022-09-06T11:54:05.089Z,100371.44
2022-09-06T11:56:33.732Z,100372.97
2022-09-06T11:59:04.084Z,100372.78
2022-09-06T12:01:39.457Z,100373.66
2022-09-06T12:04:10.565Z,100372.78
2022-09-06T12:06:40.974Z,100373.66
2022-09-06T12:09:31.260Z,100370.63
2022-09-06T12:11:59.500Z,100366.06
2022-09-06T12:14:32.291Z,100330.97
2022-09-06T12:17:27.552Z,100369.84
2022-09-06T12:20:06.720Z,100332.38
2022-09-06T12:22:54.353Z,100363.72
2022-09-06T12:25:56.021Z,100262.16
2022-09-06T12:28:33.310Z,100303.56
2022-09-06T12:31:01.076Z,100362.75
2022-09-06T12:33:31.632Z,100361.72
2022-09-06T12:36:16.960Z,100356.69
2022-09-06T12:38:55.403Z,100318.69
2022-09-06T12:41:23.127Z,100328.88
2022-09-06T12:43:50.924Z,100348.59
2022-09-06T12:46:18.690Z,100304.84
2022-09-06T12:49:00.019Z,100350.31
2022-09-06T12:51:29.151Z,100343.34
2022-09-06T12:53:58.855Z,100343.50
2022-09-06T12:56:27.938Z,100288.25
2022-09-06T12:59:17.228Z,100341.66
2022-09-06T13:01:49.218Z,100330.66
2022-09-06T13:04:21.382Z,100321.19
2022-09-06T13:06:50.432Z,100334.06
2022-09-06T13:09:19.451Z,100330.34
2022-09-06T13:11:48.634Z,100314.63
2022-09-06T13:14:19.404Z,100294.81
2022-09-06T13:16:48.251Z,100322.25
2022-09-06T13:19:17.587Z,100288.56
2022-09-06T13:21:46.234Z,100321.75
2022-09-06T13:24:22.079Z,100265.22
2022-09-06T13:26:50.015Z,100297.25
2022-09-06T13:29:24.499Z,100302.81
2022-09-06T13:31:52.888Z,100306.75
2022-09-06T13:34:24.075Z,100305.03
2022-09-06T13:36:52.457Z,100301.16
2022-09-06T13:39:34.999Z,100253.22
2022-09-06T13:42:04.470Z,100244.78
2022-09-06T13:44:32.648Z,100242.75
2022-09-06T13:47:00.468Z,100275.91
2022-09-06T13:49:28.462Z,100294.22
2022-09-06T13:51:58.022Z,100281.53
2022-09-06T13:54:26.734Z,100288.13
2022-09-06T13:56:56.096Z,100287.47
2022-09-06T13:59:24.734Z,100288.84
2022-09-06T14:01:57.554Z,100226.56
2022-09-06T14:04:25.578Z,100291.56
2022-09-06T14:06:54.087Z,100284.44
2022-09-06T14:09:21.872Z,100285.31
2022-09-06T14:11:49.578Z,100285.47
2022-09-06T14:14:18.701Z,100287.16
2022-09-06T14:16:47.612Z,100288.84
2022-09-06T14:19:15.632Z,100293.94
2022-09-06T14:21:43.353Z,100280.72
2022-09-06T14:24:11.098Z,100283.25
2022-09-06T14:26:39.438Z,100233.03
2022-09-06T14:29:08.156Z,100280.53
2022-09-06T14:31:38.909Z,100281.56
2022-09-06T14:34:06.618Z,100278.84
2022-09-06T14:36:34.816Z,100250.28
2022-09-06T14:39:02.791Z,100253.28
2022-09-06T14:41:30.504Z,100279.53
2022-09-06T14:43:58.555Z,100269.69
2022-09-06T14:46:26.923Z,100274.44
2022-09-06T14:49:00.104Z,100267.66
2022-09-06T14:51:27.977Z,100274.63
2022-09-06T14:53:57.137Z,100273.25
2022-09-06T14:56:25.997Z,100261.91
2022-09-06T14:58:54.758Z,100265.47
2022-09-06T15:01:23.256Z,100177.16
2022-09-06T15:03:52.555Z,100190.47
2022-09-06T15:06:22.062Z,100231.22
2022-09-06T15:08:49.981Z,100246.47
2022-09-06T15:11:30.147Z,100217.16
2022-09-06T15:13:58.024Z,100247.13
2022-09-06T15:16:25.716Z,100239.66
2022-09-06T15:18:55.040Z,100237.47
2022-09-06T15:21:24.175Z,100238.97
2022-09-06T15:23:52.348Z,100229.16
2022-09-06T15:26:20.091Z,100227.09
2022-09-06T15:28:47.903Z,100225.75
2022-09-06T15:31:15.788Z,100227.94
2022-09-06T15:33:43.570Z,100226.91
2022-09-06T15:36:11.355Z,100191.41
2022-09-06T15:38:41.888Z,100173.97
2022-09-06T15:41:10.502Z,100232.47
2022-09-06T15:43:40.658Z,100228.91
2022-09-06T15:46:08.441Z,100209.06
2022-09-06T15:48:43.038Z,100215.66
2022-09-06T15:51:11.050Z,100211.75
2022-09-06T15:53:40.133Z,100214.28
2022-09-06T15:56:08.348Z,100150.03
2022-09-06T15:58:36.113Z,100206.66
2022-09-06T16:01:06.344Z,100161.31
2022-09-06T16:03:36.133Z,100198.84
2022-09-06T16:08:23.672Z,100195.13
2022-09-06T16:10:52.738Z,100196.63
2022-09-06T16:13:20.463Z,100164.97
2022-09-06T16:15:57.073Z,100190.66
2022-09-06T16:18:25.029Z,100185.06
2022-09-06T16:20:52.908Z,100179.81
2022-09-06T16:23:20.718Z,100183.66
2022-09-06T16:25:49.644Z,100187.41
2022-09-06T16:28:18.799Z,100190.97
2022-09-06T16:30:46.803Z,100189.94
2022-09-06T16:33:14.691Z,100183.31
2022-09-06T16:35:42.430Z,100188.91
2022-09-06T16:38:10.174Z,100184.34
2022-09-06T16:40:37.944Z,100181.63
2022-09-06T16:43:05.885Z,100182.31
2022-09-06T16:45:35.063Z,100174.81
2022-09-06T16:48:05.091Z,100175.66
2022-09-06T16:50:35.008Z,100179.41
2022-09-06T16:53:03.613Z,100186.88
2022-09-06T16:55:32.466Z,100177.69
2022-09-06T16:58:00.330Z,100182.94
2022-09-06T17:00:28.058Z,100178.72
2022-09-06T17:02:57.273Z,100192.47
2022-09-06T17:05:25.169Z,100193.50
2022-09-06T17:07:53.908Z,100195.19
2022-09-06T17:10:21.623Z,100191.50
2022-09-06T17:12:49.526Z,100205.56
2022-09-06T17:15:17.498Z,100206.09
2022-09-06T17:17:44.338Z,100214.72
2022-09-06T17:20:13.469Z,100214.03
2022-09-06T17:22:41.261Z,100215.94
2022-09-06T17:25:09.203Z,100207.47
2022-09-06T17:27:36.934Z,100209.34
2022-09-06T17:30:05.270Z,100211.56
2022-09-06T17:32:33.302Z,100203.25
2022-09-06T17:35:01.477Z,100201.06
2022-09-06T17:37:32.715Z,100199.94
2022-09-06T17:40:01.118Z,100203.19
2022-09-06T17:42:30.596Z,100204.69
2022-09-06T17:44:58.382Z,100214.22
2022-09-06T17:47:26.093Z,100212.88
2022-09-06T17:49:53.818Z,100215.09
2022-09-06T17:52:21.541Z,100215.44
2022-09-06T17:54:50.652Z,100217.66
2022-09-06T17:57:18.459Z,100216.31
2022-09-06T17:59:46.234Z,100223.94
2022-09-06T18:02:13.918Z,100223.47
2022-09-06T18:04:41.692Z,100222.78
2022-09-06T18:07:09.456Z,100218.53
2022-09-06T18:09:37.709Z,100222.41
2022-09-06T18:12:06.989Z,100221.09
2022-09-06T18:14:34.800Z,100218.72
2022-09-06T18:17:02.627Z,100221.94
2022-09-06T18:19:30.621Z,100222.47
2022-09-06T18:21:58.338Z,100231.44
2022-09-06T18:24:26.108Z,100228.06
2022-09-06T18:26:53.846Z,100230.94
2022-09-06T18:29:23.216Z,100236.53
2022-09-06T18:31:53.660Z,100230.63
2022-09-06T18:34:21.642Z,100229.09
2022-09-06T18:36:49.493Z,100223.84
2022-09-06T18:39:19.038Z,100223.34
2022-09-06T18:42:01.946Z,100230.97
2022-09-06T18:44:33.067Z,100190.00
2022-09-06T18:47:02.259Z,100225.88
2022-09-06T18:49:30.577Z,100228.25
2022-09-06T18:51:58.354Z,100232.69
2022-09-06T18:54:26.236Z,100229.28
2022-09-06T18:56:54.071Z,100228.59
2022-09-06T18:59:21.859Z,100231.66
2022-09-06T19:01:51.994Z,100234.34
2022-09-06T19:04:20.073Z,100184.59
2022-09-06T19:06:47.896Z,100227.38
2022-09-06T19:09:16.534Z,100236.91
2022-09-06T19:11:49.184Z,100205.06
2022-09-06T19:14:17.100Z,100240.75
2022-09-06T19:16:45.489Z,100226.88
2022-09-06T19:19:14.639Z,100240.25
2022-09-06T19:21:42.856Z,100233.66
2022-09-06T19:24:11.351Z,100252.25
2022-09-06T19:26:39.785Z,100250.75
2022-09-06T19:29:08.925Z,100234.81
2022-09-06T19:31:37.497Z,100252.94
2022-09-06T19:34:05.350Z,100240.41
2022-09-06T19:36:34.817Z,100243.13
2022-09-06T19:39:04.723Z,100235.34
2022-09-06T19:41:34.051Z,100241.78
2022-09-06T19:44:03.662Z,100241.94
2022-09-06T19:46:31.492Z,100237.53
2022-09-06T19:49:00.568Z,100241.25
2022-09-06T19:51:28.478Z,100236.69
2022-09-06T19:53:58.384Z,100235.84
2022-09-06T19:56:26.351Z,100230.09
2022-09-06T19:58:55.311Z,100227.38
2022-09-06T20:01:23.263Z,100222.13
2022-09-06T20:03:51.107Z,100222.28
2022-09-06T20:06:18.877Z,100215.53
2022-09-06T20:08:50.244Z,100218.06
2022-09-06T20:11:19.802Z,100216.22
2022-09-06T20:13:47.628Z,100210.97
2022-09-06T20:16:15.733Z,100213.69
2022-09-06T20:18:43.576Z,100210.28
2022-09-06T20:21:13.811Z,100199.47
2022-09-06T20:23:42.260Z,100200.50
2022-09-06T20:26:10.886Z,100185.94
2022-09-06T20:28:39.951Z,100188.13
2022-09-06T20:31:08.792Z,100145.44
2022-09-06T20:33:36.638Z,100130.59
2022-09-06T20:36:05.296Z,100182.22
2022-09-06T20:38:33.919Z,100179.53
2022-09-06T20:41:02.864Z,100178.81
2022-09-06T20:43:31.576Z,100159.34
2022-09-06T20:46:00.655Z,100183.56
2022-09-06T20:48:28.532Z,100180.19
2022-09-06T20:51:00.251Z,100172.56
2022-09-06T20:53:28.052Z,100178.47
2022-09-06T20:55:59.605Z,100168.69
2022-09-06T20:58:27.636Z,100160.22
2022-09-06T21:00:55.606Z,100151.22
2022-09-06T21:03:24.856Z,100166.47
2022-09-06T21:05:52.578Z,100154.16
2022-09-06T21:08:20.718Z,100168.50
2022-09-06T21:10:48.990Z,100169.69
2022-09-06T21:13:16.850Z,100168.00
2022-09-06T21:15:44.617Z,100178.81
2022-09-06T21:18:12.974Z,100180.81
2022-09-06T21:20:42.044Z,100187.06
2022-09-06T21:23:09.741Z,100185.34
2022-09-06T21:25:37.468Z,100185.69
2022-09-06T21:28:05.182Z,100184.88
2022-09-06T21:30:33.052Z,100187.41
2022-09-06T21:33:00.832Z,100177.75
2022-09-06T21:35:28.613Z,100178.59
2022-09-06T21:37:57.685Z,100176.22
2022-09-06T21:40:25.460Z,100178.06
2022-09-06T21:42:53.196Z,100179.78
2022-09-06T21:45:20.941Z,100168.97
2022-09-06T21:47:48.684Z,100168.28
2022-09-06T21:50:16.640Z,100158.31
2022-09-06T21:52:44.372Z,100169.47
2022-09-06T21:55:15.573Z,100162.19
2022-09-06T21:57:43.470Z,100164.22
2022-09-06T22:00:12.369Z,100158.13
2022-09-06T22:02:40.381Z,100158.47
2022-09-06T22:05:08.754Z,100157.44
2022-09-06T22:07:36.947Z,100158.47
2022-09-06T22:10:05.200Z,100162.34
2022-09-06T22:12:34.437Z,100144.25
2022-09-06T22:15:02.203Z,100165.72
2022-09-06T22:17:29.934Z,100163.00
2022-09-06T22:19:57.816Z,100167.59
2022-09-06T22:22:27.190Z,100160.47
2022-09-06T22:24:54.925Z,100159.66
2022-09-06T22:27:23.425Z,100166.91
2022-09-06T22:29:52.500Z,100159.81
2022-09-06T22:32:21.237Z,100159.63
2022-09-06T22:34:48.989Z,100167.22
2022-09-06T22:37:16.718Z,100166.38
2022-09-06T22:39:44.550Z,100163.84
2022-09-06T22:42:12.286Z,100143.56
2022-09-06T22:44:40.613Z,100155.22
2022-09-06T22:47:09.660Z,100151.66
2022-09-06T22:49:37.399Z,100139.19
2022-09-06T22:52:05.101Z,100150.81
2022-09-06T22:54:33.102Z,100151.84
2022-09-06T22:57:00.828Z,100145.56
2022-09-06T22:59:28.562Z,100136.81
2022-09-06T23:01:56.283Z,100134.09
2022-09-06T23:04:25.437Z,100124.59
2022-09-06T23:06:53.185Z,100141.53
2022-09-06T23:09:20.961Z,100138.13
2022-09-06T23:11:48.681Z,100122.72
2022-09-06T23:14:16.519Z,100130.34
2022-09-06T23:16:44.233Z,100133.03
2022-09-06T23:19:11.959Z,100136.78
2022-09-06T23:21:41.058Z,100123.25
2022-09-06T23:24:08.770Z,100117.16
2022-09-06T23:26:36.995Z,100118.88
2022-09-06T23:29:04.727Z,100095.53
2022-09-06T23:31:32.705Z,100071.47
2022-09-06T23:34:01.200Z,100096.19
2022-09-06T23:36:29.017Z,100107.69
2022-09-06T23:38:58.183Z,100098.91
2022-09-06T23:41:25.942Z,100098.56
2022-09-06T23:43:53.661Z,100113.44
2022-09-06T23:46:21.526Z,100055.41
2022-09-06T23:48:49.266Z,100093.16
2022-09-06T23:51:16.994Z,100100.25
2022-09-06T23:53:45.361Z,100097.56
2022-09-06T23:56:14.436Z,100099.56
2022-09-06T23:58:42.127Z,100109.53
